Nearby METAR Reports

 

KPBI - West Palm Beach, Florida, USA
Distance from station: NNE 9mi, 14km
Updated: Wed, 20-Nov-2019 7:53am EST
Partly cloudy
Partly cloudy
 Wind from NNW
Wind: NNW 12 mph , 19 km/h
Temperature: 61°F , 16°C
Dew Point: 46°F , 8°C
Humidity: 59%
Barometer: 30.11 inHg , 1019.6 hPa
Clouds: Partly cloudy
Visibility: 10 miles , 16 km
Cloud details: Partly cloudy 21000 ft
2019/11/20 12:53 KPBI 201253Z 33010KT 10SM SCT210 16/08 A3011 RMK AO2 SLP195 T01560083
KBCT - Boca Raton, Florida, USA
Distance from station: SSE 13mi, 21km
Updated: Wed, 20-Nov-2019 7:53am EST
Clear
Clear
 Wind from NNW
Wind: NNW 7 mph , 11 km/h
Temperature: 61°F , 16°C
Dew Point: 46°F , 8°C
Humidity: 59%
Barometer: 30.10 inHg , 1019.3 hPa
Clouds: Clear
Visibility: 10 miles , 16 km
2019/11/20 12:53 KBCT 201253Z 34006KT 10SM CLR 16/08 A3010
 
KPMP - Pompano Beach, Florida, USA
Distance from station: S 22mi, 36km
Updated: Wed, 20-Nov-2019 7:53am EST
Few Clouds
Few Clouds
 Wind from NNW
Wind: NNW 9 mph , 15 km/h
Temperature: 61°F , 16°C
Dew Point: 46°F , 8°C
Humidity: 59%
Barometer: 30.11 inHg , 1019.6 hPa
Clouds: Few Clouds
Visibility: 10 miles , 16 km
Cloud details: Few Clouds 25000 ft
2019/11/20 12:53 KPMP 201253Z 33008KT 10SM FEW250 16/08 A3011 RMK AO2 SLP195 T01610078
KFXE - Ft Lauderd/Exec, Florida, USA
Distance from station: S 25mi, 41km
Updated: Wed, 20-Nov-2019 7:53am EST
Clear
Clear
 Wind from NW
Wind: NW 6 mph , 9 km/h
Temperature: 59°F , 15°C
Dew Point: 50°F , 10°C
Humidity: 72%
Barometer: 30.11 inHg , 1019.6 hPa
Clouds: Clear
Visibility: 10 miles , 16 km
2019/11/20 12:53 KFXE 201253Z 32005KT 10SM CLR 15/10 A3011 RMK AO2 SLP198 T01500100 $
 
KFLL - Ft Lauderd/Holly, Florida, USA
Distance from station: S 35mi, 56km
Updated: Wed, 20-Nov-2019 7:53am EST
Few Clouds
Few Clouds
 Wind from NNW
Wind: NNW 8 mph , 13 km/h
Temperature: 61°F , 16°C
Dew Point: 50°F , 10°C
Humidity: 68%
Barometer: 30.11 inHg , 1019.6 hPa
Clouds: Few Clouds
Visibility: 10 miles , 16 km
Cloud details: Few Clouds 4000 ft
Few Clouds 25000 ft
2019/11/20 12:53 KFLL 201253Z 34007KT 10SM FEW040 FEW250 16/10 A3011 RMK AO2 SLP234 T01560100 $
KHWO - Hollywood, Florida, USA
Distance from station: S 39mi, 64km
Updated: Wed, 20-Nov-2019 7:53am EST
Clear
Clear
 Wind from NNW
Wind: NNW 7 mph , 11 km/h
Temperature: 61°F , 16°C
Dew Point: 52°F , 11°C
Humidity: 72%
Barometer: 30.13 inHg , 1020.3 hPa
Clouds: Clear
Visibility: 10 miles , 16 km
2019/11/20 12:53 KHWO 201253Z 33006KT 10SM CLR 16/11 A3013 RMK AO2 SLP201 T01610111
 
KSUA - Stuart/Witham, Florida, USA
Distance from station: N 43mi, 69km
Updated: Wed, 20-Nov-2019 7:47am EST
Clear
Clear
 Wind from NNW
Wind: NNW 7 mph , 11 km/h
Temperature: 59°F , 15°C
Dew Point: 46°F , 8°C
Humidity: 63%
Barometer: 30.13 inHg , 1020.3 hPa
Clouds: Clear
Visibility: 7 miles , 11 km
2019/11/20 12:47 KSUA 201247Z 33006KT 7SM SKC 15/08 A3013
KOPF - Miami/Opa Locka, Florida, USA
Distance from station: S 46mi, 73km
Updated: Wed, 20-Nov-2019 7:53am EST
Clear
Clear
 Wind from N
Wind: N 8 mph , 13 km/h
Temperature: 63°F , 17°C
Dew Point: 54°F , 12°C
Humidity: 73%
Barometer: 30.12 inHg , 1020 hPa
Clouds: Clear
Visibility: 10 miles , 16 km
2019/11/20 12:53 KOPF 201253Z 35007KT 10SM CLR 17/12 A3012 RMK AO2 SLP199 T01670122
 
KMIA - Miami, Florida, USA
Distance from station: S 54mi, 86km
Updated: Wed, 20-Nov-2019 7:53am EST
Few Clouds
Few Clouds
 Wind from NNW
Wind: NNW 9 mph , 15 km/h
Temperature: 64°F , 18°C
Dew Point: 48°F , 9°C
Humidity: 56%
Barometer: 30.11 inHg , 1019.6 hPa
Clouds: Few Clouds
Visibility: 10 miles , 16 km
Cloud details: Few Clouds 25000 ft
2019/11/20 12:53 KMIA 201253Z 33008KT 10SM FEW250 18/09 A3011 RMK AO2 SLP196 T01780094
KOBE - Okeechobee Cty, Florida, USA
Distance from station: NW 64mi, 104km
Updated: Wed, 20-Nov-2019 7:55am EST
Clear
Clear
 Wind from N
Wind: N 5 mph , 7 km/h
Temperature: 50°F , 10°C
Wind Chill: 48°F , 9°C
Dew Point: 50°F , 10°C
Humidity: 100%
Barometer: 30.13 inHg , 1020.3 hPa
Clouds: Clear
Visibility: 10 miles , 16 km
2019/11/20 12:55 KOBE 201255Z AUTO 35004KT 10SM CLR 10/10 A3013 RMK AO2
 
KFPR - Fort Pierce, Florida, USA
Distance from station: NNW 66mi, 106km
Updated: Tue, 19-Nov-2019 2:53pm EST
NOT Current
Partly cloudy
Partly cloudy
 Wind from W
Wind: W 10 mph , 17 km/h
Temperature: 75°F , 24°C
Dew Point: 55°F , 13°C
Humidity: 50%
Barometer: 29.91 inHg , 1012.9 hPa
Clouds: Partly cloudy
Visibility: 10 miles , 16 km
Cloud details: Partly cloudy 5500 ft
2019/11/19 19:53 KFPR 191953Z 28009KT 10SM SCT055 24/13 A2991 RMK AO2 SLP127 T02390128
KTMB - Miami/Tamiami, Florida, USA
Distance from station: SSW 66mi, 106km
Updated: Wed, 20-Nov-2019 7:53am EST
Clear
Clear
 Wind from N
Wind: N 7 mph , 11 km/h
Temperature: 63°F , 17°C
Dew Point: 54°F , 12°C
Humidity: 73%
Barometer: 30.11 inHg , 1019.6 hPa
Clouds: Clear
Visibility: 10 miles , 16 km
2019/11/20 12:53 KTMB 201253Z 35006KT 10SM CLR 17/12 A3011 RMK AO2 SLP196 T01670122
 
KVRB - Vero Beach, Florida, USA
Distance from station: NNW 76mi, 123km
Updated: Wed, 20-Nov-2019 7:53am EST
Clear
Clear
 Wind from NW
Wind: NW 5 mph , 7 km/h
Temperature: 55°F , 13°C
Dew Point: 52°F , 11°C
Humidity: 88%
Barometer: 30.13 inHg , 1020.3 hPa
Clouds: Clear
Visibility: 10 miles , 16 km
2019/11/20 12:53 KVRB 201253Z 32004KT 10SM CLR 13/11 A3013 RMK AO2 SLP201 T01330111
KHST - Homestead Afb, Florida, USA
Distance from station: S 77mi, 124km
Updated: Wed, 20-Nov-2019 7:56am EST
Clear
Clear
 Wind from NNW
Wind: NNW 9 mph , 15 km/h
Temperature: 61°F , 16°C
Dew Point: 54°F , 12°C
Humidity: 77%
Barometer: 30.09 inHg , 1019 hPa
Clouds: Clear
Visibility: 10 miles , 16 km
2019/11/20 12:56 KHST 201256Z AUTO 33008KT 10SM CLR 16/12 A3009 RMK AO2 SLP193 T01550115
 
KIMM - Immokalee, Florida, USA
Distance from station: W 77mi, 124km
Updated: Wed, 20-Nov-2019 7:55am EST
Clear
Clear
 Wind from calm
Wind: Calm
Temperature: 54°F , 12°C
Dew Point: 52°F , 11°C
Humidity: 94%
Barometer: 30.13 inHg , 1020.3 hPa
Clouds: Clear
Visibility: 9 miles , 14 km
2019/11/20 12:55 KIMM 201255Z AUTO 00000KT 9SM CLR 12/11 A3013 RMK AO2
MYGF - Freeport Intl A, Bahamas
Distance from station: E 90mi, 145km
Updated: Wed, 20-Nov-2019 7:00am EST
Few Clouds
Few Clouds
 Wind from NNE
Wind: NNE 12 mph , 19 km/h
Temperature: 70°F , 21°C
Dew Point: 57°F , 14°C
Humidity: 64%
Barometer: 30.06 inHg , 1017.9 hPa
Clouds: Few Clouds
Visibility: 6 miles , 10 km
Cloud details: Few Clouds 2200 ft
2019/11/20 12:00 MYGF 201200Z 02010KT 9999 FEW022 21/14 A3006
 
KSEF - Sebring, Florida, USA
Distance from station: NW 95mi, 153km
Updated: Wed, 20-Nov-2019 7:55am EST
Mist, Clear
Mist, Clear
 Wind from calm
Wind: Calm
Temperature: 52°F , 11°C
Dew Point: 52°F , 11°C
Humidity: 100%
Barometer: 30.15 inHg , 1021 hPa
Summary: Mist
Clouds: Clear
Visibility: 5 miles , 8 km
2019/11/20 12:55 KSEF 201255Z AUTO 00000KT 5SM BR CLR 11/11 A3015 RMK AO2 T01110106
KRSW - Fort Myers, Florida, USA
Distance from station: W 98mi, 158km
Updated: Wed, 20-Nov-2019 7:53am EST
Clear
Clear
 Wind from calm
Wind: Calm
Temperature: 57°F , 14°C
Dew Point: 54°F , 12°C
Humidity: 88%
Barometer: 30.13 inHg , 1020.3 hPa
Clouds: Clear
Visibility: 9 miles , 14 km
2019/11/20 12:53 KRSW 201253Z 00000KT 9SM CLR 14/12 A3013 RMK AO2 SLP201 T01440122